sensor_id;sensor_type;location;lat;lon;timestamp;temperature;humidity
4960;DHT22;2495;48.200;11.532;2023-04-01T00:04:48;10.40;75.60
4960;DHT22;2495;48.200;11.532;2023-04-01T00:09:52;10.40;75.80
4960;DHT22;2495;48.200;11.532;2023-04-01T00:14:56;10.50;75.70
4960;DHT22;2495;48.200;11.532;2023-04-01T00:20:00;10.40;76.30
4960;DHT22;2495;48.200;11.532;2023-04-01T00:25:23;10.30;76.30
4960;DHT22;2495;48.200;11.532;2023-04-01T00:30:26;10.30;76.40
4960;DHT22;2495;48.200;11.532;2023-04-01T00:35:36;10.20;76.60
4960;DHT22;2495;48.200;11.532;2023-04-01T00:46:04;10.20;77.20
4960;DHT22;2495;48.200;11.532;2023-04-01T00:51:07;10.20;77.00
4960;DHT22;2495;48.200;11.532;2023-04-01T00:56:10;10.00;77.60
4960;DHT22;2495;48.200;11.532;2023-04-01T01:01:08;10.10;77.60
4960;DHT22;2495;48.200;11.532;2023-04-01T01:11:55;10.10;77.50
4960;DHT22;2495;48.200;11.532;2023-04-01T01:17:02;10.00;78.20
4960;DHT22;2495;48.200;11.532;2023-04-01T01:22:17;10.10;78.20
4960;DHT22;2495;48.200;11.532;2023-04-01T01:27:26;10.10;78.60
4960;DHT22;2495;48.200;11.532;2023-04-01T01:38:00;10.00;79.10
4960;DHT22;2495;48.200;11.532;2023-04-01T01:43:03;10.00;78.80
4960;DHT22;2495;48.200;11.532;2023-04-01T01:48:02;10.00;78.00
4960;DHT22;2495;48.200;11.532;2023-04-01T01:53:06;10.10;78.40
4960;DHT22;2495;48.200;11.532;2023-04-01T01:58:24;10.10;78.00
4960;DHT22;2495;48.200;11.532;2023-04-01T02:03:32;10.00;78.40
4960;DHT22;2495;48.200;11.532;2023-04-01T02:08:35;10.10;77.50
4960;DHT22;2495;48.200;11.532;2023-04-01T02:19:14;10.00;77.80
4960;DHT22;2495;48.200;11.532;2023-04-01T02:24:19;10.00;77.00
4960;DHT22;2495;48.200;11.532;2023-04-01T02:29:28;10.00;76.90
4960;DHT22;2495;48.200;11.532;2023-04-01T02:34:29;10.00;76.80
4960;DHT22;2495;48.200;11.532;2023-04-01T02:39:34;10.00;76.00
4960;DHT22;2495;48.200;11.532;2023-04-01T02:44:36;10.10;76.60
4960;DHT22;2495;48.200;11.532;2023-04-01T02:49:37;10.10;76.60
4960;DHT22;2495;48.200;11.532;2023-04-01T02:54:39;10.10;76.90
4960;DHT22;2495;48.200;11.532;2023-04-01T02:59:40;10.10;76.20
4960;DHT22;2495;48.200;11.532;2023-04-01T03:04:42;10.10;76.40
4960;DHT22;2495;48.200;11.532;2023-04-01T03:09:43;10.10;76.70
4960;DHT22;2495;48.200;11.532;2023-04-01T03:14:45;10.00;77.10
4960;DHT22;2495;48.200;11.532;2023-04-01T03:19:52;9.90;76.30
4960;DHT22;2495;48.200;11.532;2023-04-01T03:24:54;9.90;77.10
4960;DHT22;2495;48.200;11.532;2023-04-01T03:29:55;9.90;76.90
4960;DHT22;2495;48.200;11.532;2023-04-01T03:34:57;9.80;77.20
4960;DHT22;2495;48.200;11.532;2023-04-01T03:39:58;9.80;77.00
4960;DHT22;2495;48.200;11.532;2023-04-01T03:44:59;9.70;77.30
4960;DHT22;2495;48.200;11.532;2023-04-01T03:50:01;9.70;77.30
4960;DHT22;2495;48.200;11.532;2023-04-01T03:55:02;9.70;77.40
4960;DHT22;2495;48.200;11.532;2023-04-01T04:00:04;9.60;77.60
4960;DHT22;2495;48.200;11.532;2023-04-01T04:05:13;9.70;77.80
4960;DHT22;2495;48.200;11.532;2023-04-01T04:10:14;9.70;77.60
4960;DHT22;2495;48.200;11.532;2023-04-01T04:15:18;9.70;77.30
4960;DHT22;2495;48.200;11.532;2023-04-01T04:20:19;9.70;77.60
4960;DHT22;2495;48.200;11.532;2023-04-01T04:25:20;9.50;78.10
4960;DHT22;2495;48.200;11.532;2023-04-01T04:30:21;9.60;78.20
4960;DHT22;2495;48.200;11.532;2023-04-01T04:35:23;10.00;78.30
4960;DHT22;2495;48.200;11.532;2023-04-01T04:40:56;10.00;77.20
4960;DHT22;2495;48.200;11.532;2023-04-01T04:45:58;10.30;78.00
4960;DHT22;2495;48.200;11.532;2023-04-01T04:51:02;10.20;76.50
4960;DHT22;2495;48.200;11.532;2023-04-01T04:56:03;10.20;76.80
4960;DHT22;2495;48.200;11.532;2023-04-01T05:01:17;10.00;76.30
4960;DHT22;2495;48.200;11.532;2023-04-01T05:06:24;10.00;76.90
4960;DHT22;2495;48.200;11.532;2023-04-01T05:11:26;9.80;77.80
4960;DHT22;2495;48.200;11.532;2023-04-01T05:16:27;9.90;77.20
4960;DHT22;2495;48.200;11.532;2023-04-01T05:21:32;9.90;77.20
4960;DHT22;2495;48.200;11.532;2023-04-01T05:26:33;10.00;77.10
4960;DHT22;2495;48.200;11.532;2023-04-01T05:31:35;10.10;76.80
4960;DHT22;2495;48.200;11.532;2023-04-01T05:36:36;10.10;76.40
4960;DHT22;2495;48.200;11.532;2023-04-01T05:41:41;10.10;75.40
4960;DHT22;2495;48.200;11.532;2023-04-01T05:46:45;10.20;75.90
4960;DHT22;2495;48.200;11.532;2023-04-01T05:51:46;10.20;75.00
4960;DHT22;2495;48.200;11.532;2023-04-01T05:56:48;10.40;74.30
4960;DHT22;2495;48.200;11.532;2023-04-01T06:01:52;10.40;73.50
4960;DHT22;2495;48.200;11.532;2023-04-01T06:06:59;10.50;74.00
4960;DHT22;2495;48.200;11.532;2023-04-01T06:17:36;10.50;73.90
4960;DHT22;2495;48.200;11.532;2023-04-01T06:28:16;10.70;73.50
4960;DHT22;2495;48.200;11.532;2023-04-01T06:50:44;11.30;70.00
4960;DHT22;2495;48.200;11.532;2023-04-01T06:56:02;11.40;69.70
4960;DHT22;2495;48.200;11.532;2023-04-01T07:01:32;11.70;68.70
4960;DHT22;2495;48.200;11.532;2023-04-01T07:06:32;11.90;67.50
4960;DHT22;2495;48.200;11.532;2023-04-01T07:11:40;11.90;67.50
4960;DHT22;2495;48.200;11.532;2023-04-01T07:16:59;12.10;67.10
4960;DHT22;2495;48.200;11.532;2023-04-01T07:22:01;12.10;66.40
4960;DHT22;2495;48.200;11.532;2023-04-01T07:27:13;12.20;67.10
4960;DHT22;2495;48.200;11.532;2023-04-01T07:32:45;12.30;64.70
4960;DHT22;2495;48.200;11.532;2023-04-01T07:49:31;12.40;65.20
4960;DHT22;2495;48.200;11.532;2023-04-01T08:48:43;14.40;57.30
4960;DHT22;2495;48.200;11.532;2023-04-01T08:54:38;14.40;59.10
4960;DHT22;2495;48.200;11.532;2023-04-01T08:59:50;14.60;58.20
4960;DHT22;2495;48.200;11.532;2023-04-01T09:10:39;14.80;57.60
4960;DHT22;2495;48.200;11.532;2023-04-01T09:27:53;15.50;53.70
4960;DHT22;2495;48.200;11.532;2023-04-01T22:16:44;10.70;74.90
4960;DHT22;2495;48.200;11.532;2023-04-01T22:21:46;10.60;75.10
4960;DHT22;2495;48.200;11.532;2023-04-01T22:27:32;10.60;74.30
4960;DHT22;2495;48.200;11.532;2023-04-01T22:32:44;10.60;75.20
4960;DHT22;2495;48.200;11.532;2023-04-01T22:58:56;10.80;75.50
4960;DHT22;2495;48.200;11.532;2023-04-01T23:09:17;10.70;74.70
4960;DHT22;2495;48.200;11.532;2023-04-01T23:19:24;10.50;75.50
4960;DHT22;2495;48.200;11.532;2023-04-01T23:24:38;10.50;75.40
4960;DHT22;2495;48.200;11.532;2023-04-01T23:29:45;10.80;76.20
4960;DHT22;2495;48.200;11.532;2023-04-01T23:34:51;10.60;74.90
4960;DHT22;2495;48.200;11.532;2023-04-01T23:39:52;10.60;74.90
4960;DHT22;2495;48.200;11.532;2023-04-01T23:44:56;10.70;74.40
4960;DHT22;2495;48.200;11.532;2023-04-01T23:49:58;10.70;74.80
4960;DHT22;2495;48.200;11.532;2023-04-01T23:55:00;10.60;74.60
